Time;durP1;ratioP1;P1;durP2;ratioP2;P2;SDS_P1;SDS_P2;PMS_P1;PMS_P2;Temp;Humidity;BMP_temperature;BMP_pressure;BME280_temperature;BME280_humidity;BME280_pressure;Samples;Min_cycle;Max_cycle;Signal;HPM_P1;HPM_P2
2022/09/06 00:00:37;;;;;;;9.20;5.85;;;20.50;99.90;;;;;;5032714;28;20045;-64
2022/09/06 00:03:02;;;;;;;8.50;5.38;;;20.70;99.90;;;;;;5050644;28;20048;-64
2022/09/06 00:05:30;;;;;;;10.15;6.22;;;20.50;99.90;;;;;;5050651;28;20488;-64
2022/09/06 00:07:58;;;;;;;12.02;6.15;;;;;;;;;;5030716;28;20040;-64
2022/09/06 00:10:24;;;;;;;8.35;6.28;;;20.40;99.90;;;;;;5045565;28;20033;-64
2022/09/06 00:12:49;;;;;;;9.43;6.82;;;20.60;99.90;;;;;;5050651;28;20110;-65
2022/09/06 00:15:15;;;;;;;15.63;7.30;;;20.20;99.90;;;;;;5050562;28;20044;-64
2022/09/06 00:17:43;;;;;;;9.18;6.38;;;20.10;99.90;;;;;;5045067;28;20045;-64
2022/09/06 00:20:09;;;;;;;10.43;6.00;;;19.90;99.90;;;;;;5035594;28;20051;-65
2022/09/06 00:22:35;;;;;;;9.13;6.47;;;20.20;99.90;;;;;;5036617;28;20037;-64
2022/09/06 00:25:01;;;;;;;10.13;5.85;;;20.40;99.90;;;;;;5054168;28;20159;-64
2022/09/06 00:27:27;;;;;;;11.50;6.53;;;20.10;99.90;;;;;;5053803;28;20045;-65
2022/09/06 00:29:53;;;;;;;11.60;6.38;;;20.40;99.90;;;;;;5045389;28;20043;-65
2022/09/06 00:32:18;;;;;;;10.38;6.18;;;20.40;99.90;;;;;;5054324;28;20029;-64
2022/09/06 00:34:44;;;;;;;9.85;6.72;;;;;;;;;;5036228;28;20043;-64
2022/09/06 00:37:10;;;;;;;10.85;6.20;;;20.30;99.90;;;;;;5053836;28;20032;-64
2022/09/06 00:39:35;;;;;;;9.70;6.45;;;20.20;99.90;;;;;;5053630;28;20489;-64
2022/09/06 00:42:01;;;;;;;10.52;6.13;;;20.40;99.90;;;;;;5054312;28;20033;-65
2022/09/06 00:44:26;;;;;;;7.63;5.85;;;19.70;99.90;;;;;;5053781;28;20040;-64
2022/09/06 00:46:53;;;;;;;9.40;6.15;;;20.30;99.90;;;;;;5049481;28;20482;-64
2022/09/06 00:49:23;;;;;;;10.35;6.55;;;;;;;;;;5036106;28;20033;-64
2022/09/06 00:51:52;;;;;;;11.55;5.95;;;20.20;99.90;;;;;;5053520;28;20558;-64
2022/09/06 00:54:18;;;;;;;9.32;6.35;;;20.70;99.90;;;;;;5053609;28;20052;-65
2022/09/06 00:56:45;;;;;;;9.88;5.95;;;19.70;99.90;;;;;;5036074;28;20041;-64
2022/09/06 00:59:10;;;;;;;8.70;5.72;;;20.20;99.90;;;;;;5053111;28;20043;-65
2022/09/06 01:01:36;;;;;;;11.55;6.15;;;20.50;99.90;;;;;;5053658;28;20045;-65
2022/09/06 01:04:03;;;;;;;9.70;6.68;;;;;;;;;;5035710;28;20072;-64
2022/09/06 01:06:42;;;;;;;9.30;6.43;;;20.00;99.90;;;;;;5053162;28;20074;-64
2022/09/06 01:09:26;;;;;;;8.02;5.88;;;20.30;99.90;;;;;;5053627;28;20032;-64
2022/09/06 01:11:55;;;;;;;8.63;6.35;;;20.40;99.90;;;;;;5052935;28;20037;-64
2022/09/06 01:14:58;;;;;;;8.23;6.10;;;20.10;99.90;;;;;;5053355;28;20045;-64
2022/09/06 01:17:40;;;;;;;8.77;5.75;;;20.20;99.90;;;;;;5048628;28;20090;-64
2022/09/06 01:20:44;;;;;;;9.38;6.45;;;20.20;99.90;;;;;;5047470;28;20033;-64
2022/09/06 01:23:28;;;;;;;9.27;6.00;;;;;;;;;;5047538;28;20083;-64
2022/09/06 01:25:54;;;;;;;;;;;;;;;;;;5053688;28;20457;-64
2022/09/06 01:28:32;;;;;;;8.20;5.85;;;19.40;99.90;;;;;;5052464;28;19916;-65
2022/09/06 01:31:11;;;;;;;8.00;6.15;;;;;;;;;;5033824;28;20040;-65
2022/09/06 01:34:09;;;;;;;8.15;6.25;;;20.30;99.90;;;;;;5053111;28;20053;-64
2022/09/06 01:36:50;;;;;;;7.93;5.72;;;20.10;99.90;;;;;;5066048;28;20045;-64
2022/09/06 01:39:31;;;;;;;8.38;5.65;;;20.00;99.90;;;;;;5049704;28;20265;-64
2022/09/06 01:42:01;;;;;;;9.57;6.07;;;20.10;99.90;;;;;;5045988;28;20045;-64
2022/09/06 01:44:28;;;;;;;8.07;5.95;;;19.70;99.90;;;;;;5052916;28;20053;-64
2022/09/06 01:47:05;;;;;;;7.45;5.75;;;20.30;99.90;;;;;;5044792;28;20401;-64
2022/09/06 01:50:09;;;;;;;9.18;5.85;;;19.90;99.90;;;;;;5052773;28;20049;-64
2022/09/06 01:52:52;;;;;;;9.33;5.63;;;20.10;99.90;;;;;;5052723;28;20041;-64
2022/09/06 01:55:27;;;;;;;10.15;5.80;;;20.30;99.90;;;;;;5035158;28;20393;-64
2022/09/06 01:58:03;;;;;;;9.05;5.65;;;20.00;99.90;;;;;;5051985;28;20041;-65
2022/09/06 02:00:30;;;;;;;7.95;5.63;;;20.20;99.90;;;;;;5052869;28;20111;-65
2022/09/06 02:03:10;;;;;;;8.85;5.07;;;20.00;99.90;;;;;;5052718;28;20033;-64
2022/09/06 02:06:05;;;;;;;9.13;5.45;;;;;;;;;;5052701;28;20090;-64
2022/09/06 02:08:37;;;;;;;9.45;5.68;;;20.50;99.90;;;;;;5028245;28;20082;-64
2022/09/06 02:11:06;;;;;;;10.10;6.13;;;19.90;99.90;;;;;;5052757;28;20037;-64
2022/09/06 02:13:38;;;;;;;9.35;6.10;;;;;;;;;;5049548;28;20051;-64
2022/09/06 02:16:06;;;;;;;8.75;6.15;;;;;;;;;;5052322;28;20478;-64
2022/09/06 02:18:39;;;;;;;8.60;5.55;;;;;;;;;;5051640;28;20049;-65
2022/09/06 02:21:07;;;;;;;7.35;5.45;;;20.00;99.90;;;;;;5051692;28;20494;-64
2022/09/06 02:23:38;;;;;;;9.82;6.32;;;19.80;99.90;;;;;;5052180;28;20048;-65
2022/09/06 02:26:06;;;;;;;8.32;5.45;;;;;;;;;;5051780;28;20033;-65
2022/09/06 02:28:32;;;;;;;9.80;5.93;;;20.10;99.90;;;;;;5051716;28;20041;-64
2022/09/06 02:31:02;;;;;;;8.25;5.82;;;19.50;99.90;;;;;;5051906;28;20040;-64
2022/09/06 02:33:31;;;;;;;11.32;6.30;;;20.00;99.90;;;;;;5052225;28;20037;-64
2022/09/06 02:36:05;;;;;;;8.45;5.40;;;19.10;99.90;;;;;;5051923;28;20051;-64
2022/09/06 02:38:33;;;;;;;8.10;6.05;;;;;;;;;;5051603;28;20087;-64
2022/09/06 02:40:59;;;;;;;8.80;5.60;;;20.30;99.90;;;;;;5051355;28;20043;-64
2022/09/06 02:43:25;;;;;;;9.07;5.53;;;;;;;;;;5051580;28;20037;-64
2022/09/06 02:45:51;;;;;;;8.73;6.28;;;19.80;99.90;;;;;;5051821;28;20104;-64
2022/09/06 02:48:17;;;;;;;9.10;5.50;;;19.80;99.90;;;;;;5051544;28;20565;-64
2022/09/06 02:50:42;;;;;;;15.23;6.18;;;19.80;99.90;;;;;;5051727;28;20041;-65
2022/09/06 02:53:13;;;;;;;10.90;6.65;;;20.00;99.90;;;;;;5051738;28;20039;-64
2022/09/06 02:55:39;;;;;;;8.52;5.82;;;19.80;99.90;;;;;;5051659;28;20433;-64
2022/09/06 02:58:06;;;;;;;12.00;6.20;;;19.80;99.90;;;;;;5072354;22;20041;-54
2022/09/06 03:00:36;;;;;;;8.20;5.80;;;19.30;99.90;;;;;;5063879;28;20057;-50
2022/09/06 03:03:04;;;;;;;10.98;5.82;;;21.10;99.90;;;;;;5059930;28;20029;-52
2022/09/06 03:05:31;;;;;;;8.82;5.80;;;19.90;99.90;;;;;;5067216;28;20036;-52
2022/09/06 03:07:56;;;;;;;9.55;5.55;;;19.60;99.90;;;;;;5059712;28;20040;-54
2022/09/06 03:10:23;;;;;;;7.22;5.60;;;19.10;99.90;;;;;;5055132;28;20445;-54
2022/09/06 03:12:52;;;;;;;11.85;5.63;;;;;;;;;;5079359;22;20146;-87
2022/09/06 03:15:24;;;;;;;12.98;5.97;;;;;;;;;;4991036;28;20042;-87
2022/09/06 03:17:58;;;;;;;7.38;5.75;;;;;;;;;;5007814;28;20091;-89
2022/09/06 03:20:24;;;;;;;10.73;6.50;;;;;;;;;;5008530;28;20151;-87
2022/09/06 03:22:52;;;;;;;8.02;5.70;;;;;;;;;;5017834;28;20042;-87
2022/09/06 03:25:19;;;;;;;8.80;6.53;;;;;;;;;;4996216;28;20053;-87
2022/09/06 03:27:45;;;;;;;9.63;6.85;;;;;;;;;;5015110;28;20073;-88
2022/09/06 03:30:17;;;;;;;7.50;5.97;;;;;;;;;;5004561;28;20037;-86
2022/09/06 03:32:46;;;;;;;10.00;7.07;;;;;;;;;;5016983;28;20033;-88
2022/09/06 03:35:15;;;;;;;10.23;6.50;;;;;;;;;;4992940;28;20117;-86
2022/09/06 03:37:41;;;;;;;10.77;6.15;;;;;;;;;;5002171;28;20316;-88
2022/09/06 03:40:10;;;;;;;10.55;6.13;;;;;;;;;;4995707;28;20034;-87
2022/09/06 03:42:38;;;;;;;10.95;6.05;;;;;;;;;;4990096;28;20038;-86
2022/09/06 03:45:08;;;;;;;11.40;6.63;;;;;;;;;;4999943;28;20052;-90
2022/09/06 03:47:34;;;;;;;8.85;6.93;;;;;;;;;;5035015;28;20050;-93
2022/09/06 03:50:00;;;;;;;8.63;6.20;;;;;;;;;;5032597;28;20061;-93
2022/09/06 03:52:32;;;;;;;8.52;6.68;;;;;;;;;;5026831;28;20037;-93
2022/09/06 03:54:58;;;;;;;9.32;7.00;;;;;;;;;;5012497;28;20032;-94
2022/09/06 03:57:27;;;;;;;10.80;6.25;;;;;;;;;;5007727;28;20365;-92
2022/09/06 03:59:55;;;;;;;8.25;6.45;;;;;;;;;;5022939;28;20026;-91
2022/09/06 04:02:40;;;;;;;9.10;6.65;;;;;;;;;;5029511;28;20038;-93
2022/09/06 04:05:08;;;;;;;12.25;6.88;;;18.40;99.90;;;;;;5045881;28;20034;-92
2022/09/06 04:07:36;;;;;;;9.70;7.68;;;;;;;;;;5042605;28;20037;-90
2022/09/06 04:13:10;;;;;;;9.23;6.68;;;;;;;;;;5031227;28;20118;-89
2022/09/06 04:15:36;;;;;;;10.30;7.45;;;;;;;;;;5043898;28;20033;-88
2022/09/06 04:18:02;;;;;;;9.00;7.13;;;19.00;99.90;;;;;;5037919;28;20030;-88
2022/09/06 04:21:19;;;;;;;;;;;;;;;;;;;;;
2022/09/06 04:23:42;;;;;;;14.52;8.23;;;;;;;;;;5026232;28;20488;-62
2022/09/06 04:26:07;;;;;;;16.75;8.52;;;19.00;99.90;;;;;;5024178;28;20048;-62
2022/09/06 04:28:33;;;;;;;10.18;7.50;;;18.80;99.90;;;;;;5029363;28;20041;-63
2022/09/06 04:31:00;;;;;;;11.75;7.85;;;18.80;99.90;;;;;;5031021;28;20059;-62
2022/09/06 04:33:27;;;;;;;10.90;8.38;;;18.90;99.90;;;;;;5030088;28;20038;-63
2022/09/06 04:35:55;;;;;;;9.68;8.25;;;18.90;99.90;;;;;;5028999;28;20204;-62
2022/09/06 04:38:21;;;;;;;12.90;8.60;;;;;;;;;;5028396;28;20388;-63
2022/09/06 04:40:47;;;;;;;12.30;9.68;;;18.80;99.90;;;;;;5029611;28;20105;-63
2022/09/06 04:43:12;;;;;;;11.70;8.73;;;18.80;99.90;;;;;;5031705;28;20129;-63
2022/09/06 04:45:38;;;;;;;11.98;9.30;;;19.20;99.90;;;;;;5029374;28;20039;-63
2022/09/06 04:48:03;;;;;;;10.90;9.25;;;18.40;99.90;;;;;;5021877;28;20476;-62
2022/09/06 04:50:29;;;;;;;11.07;9.57;;;18.80;99.90;;;;;;5029537;28;20033;-62
2022/09/06 04:52:55;;;;;;;9.25;8.10;;;;;;;;;;5026998;28;20041;-62
2022/09/06 04:55:21;;;;;;;9.88;8.60;;;18.30;99.90;;;;;;5012955;28;20033;-63
2022/09/06 04:57:46;;;;;;;12.82;9.02;;;19.20;99.90;;;;;;5020092;28;20492;-62
2022/09/06 05:00:13;;;;;;;11.18;8.65;;;;;;;;;;5030688;28;20162;-62
2022/09/06 05:02:38;;;;;;;12.23;8.73;;;18.50;99.90;;;;;;5021840;28;20041;-62
2022/09/06 05:05:04;;;;;;;11.82;9.15;;;18.20;99.90;;;;;;5020308;28;20397;-62
2022/09/06 05:07:30;;;;;;;11.15;9.18;;;18.00;99.90;;;;;;5023409;28;20040;-62
2022/09/06 05:09:56;;;;;;;11.45;8.45;;;18.30;99.90;;;;;;5010837;28;20116;-62
2022/09/06 05:12:21;;;;;;;11.15;9.70;;;18.00;99.90;;;;;;5023984;28;20044;-62
2022/09/06 05:14:47;;;;;;;10.68;9.18;;;18.30;99.90;;;;;;5022803;28;20251;-63
2022/09/06 05:17:13;;;;;;;13.70;9.02;;;17.80;99.90;;;;;;5028416;28;20075;-62
2022/09/06 05:19:39;;;;;;;10.00;8.85;;;;;;;;;;5015236;28;20053;-62
2022/09/06 05:22:06;;;;;;;11.23;9.02;;;;;;;;;;5017024;28;20052;-62
2022/09/06 05:24:31;;;;;;;12.73;9.05;;;17.90;99.90;;;;;;5004807;28;20518;-63
2022/09/06 05:26:57;;;;;;;11.65;9.10;;;18.30;99.90;;;;;;5015383;28;20034;-63
2022/09/06 05:29:23;;;;;;;12.00;9.75;;;;;;;;;;5031913;28;20029;-62
2022/09/06 05:31:49;;;;;;;12.68;10.18;;;18.20;99.90;;;;;;5030966;28;20045;-63
2022/09/06 05:34:15;;;;;;;12.02;10.02;;;17.90;99.90;;;;;;5030599;28;20033;-64
2022/09/06 05:36:40;;;;;;;11.85;10.15;;;18.10;99.90;;;;;;5018472;28;20065;-63
2022/09/06 05:39:06;;;;;;;12.20;10.10;;;18.80;99.90;;;;;;5033246;28;20037;-63
2022/09/06 05:41:32;;;;;;;14.30;10.07;;;18.20;99.90;;;;;;5000956;28;20137;-63
2022/09/06 05:43:58;;;;;;;11.70;10.40;;;18.00;99.90;;;;;;5016270;28;20052;-63
2022/09/06 05:46:25;;;;;;;13.13;11.18;;;17.90;99.90;;;;;;5034098;28;20117;-63
2022/09/06 05:49:06;;;;;;;11.38;10.18;;;17.60;99.90;;;;;;5014343;28;20112;-63
2022/09/06 05:51:32;;;;;;;13.40;10.75;;;;;;;;;;5029417;28;20083;-64
2022/09/06 05:53:58;;;;;;;11.15;9.95;;;18.20;99.90;;;;;;5025951;28;20048;-63
2022/09/06 05:56:24;;;;;;;12.23;9.98;;;;;;;;;;5021212;28;20108;-64
2022/09/06 05:58:50;;;;;;;12.52;10.38;;;18.00;99.90;;;;;;5022605;28;20116;-64
2022/09/06 06:01:21;;;;;;;14.75;10.30;;;17.90;99.90;;;;;;5028608;28;20535;-63
2022/09/06 06:03:51;;;;;;;13.60;10.63;;;;;;;;;;5028826;28;20045;-63
2022/09/06 06:06:18;;;;;;;11.38;9.77;;;;;;;;;;5027548;28;20391;-63
2022/09/06 06:08:43;;;;;;;11.30;10.10;;;18.00;1.00;;;;;;5021259;28;20491;-63
2022/09/06 06:11:09;;;;;;;12.77;9.98;;;17.80;1.00;;;;;;5031082;28;20040;-63
2022/09/06 06:13:38;;;;;;;11.70;9.68;;;17.70;1.00;;;;;;5030938;28;20037;-63
2022/09/06 06:16:08;;;;;;;12.85;10.57;;;17.40;99.90;;;;;;5031517;28;20289;-63
2022/09/06 06:18:34;;;;;;;13.43;10.95;;;;;;;;;;5029144;28;20076;-63
2022/09/06 06:21:07;;;;;;;12.27;10.75;;;;;;;;;;5020625;28;20034;-63
2022/09/06 06:23:32;;;;;;;11.77;10.57;;;17.80;1.00;;;;;;5019662;28;20033;-63
2022/09/06 06:25:58;;;;;;;13.20;10.00;;;;;;;;;;5021515;28;20041;-63
2022/09/06 06:28:24;;;;;;;12.75;11.23;;;18.00;1.00;;;;;;5020205;28;20033;-63
2022/09/06 06:30:50;;;;;;;12.68;11.10;;;17.70;1.00;;;;;;5022028;28;20033;-63
2022/09/06 06:33:15;;;;;;;12.55;11.23;;;17.60;1.00;;;;;;5031646;28;20513;-63
2022/09/06 06:35:42;;;;;;;13.13;11.73;;;18.10;1.00;;;;;;5029624;28;20508;-63
2022/09/06 06:38:11;;;;;;;11.70;10.32;;;17.80;1.00;;;;;;5012695;28;20064;-63
2022/09/06 06:40:36;;;;;;;13.93;11.40;;;17.70;1.00;;;;;;5029353;28;20116;-63
2022/09/06 06:43:02;;;;;;;17.38;11.43;;;17.80;1.00;;;;;;5031382;28;20403;-63
2022/09/06 06:45:28;;;;;;;15.25;11.48;;;17.60;1.00;;;;;;5030641;28;20075;-63
2022/09/06 06:47:53;;;;;;;13.85;11.27;;;18.10;1.00;;;;;;5030917;28;20033;-63
2022/09/06 06:50:19;;;;;;;11.82;10.63;;;17.60;1.00;;;;;;5002190;28;20041;-63
2022/09/06 06:52:44;;;;;;;12.85;10.65;;;17.90;1.00;;;;;;5026810;28;20056;-63
2022/09/06 06:55:10;;;;;;;11.90;10.70;;;17.90;1.00;;;;;;5019729;28;20062;-63
2022/09/06 06:57:35;;;;;;;12.15;10.75;;;17.80;1.00;;;;;;5016537;28;20191;-63
2022/09/06 07:00:02;;;;;;;13.60;10.77;;;18.30;1.00;;;;;;5025138;28;20051;-63
2022/09/06 07:02:28;;;;;;;13.38;10.48;;;17.80;1.00;;;;;;5030856;28;20103;-63
2022/09/06 07:04:53;;;;;;;14.13;10.93;;;18.80;1.00;;;;;;5030116;28;20499;-62
2022/09/06 07:07:19;;;;;;;12.48;10.88;;;18.00;1.00;;;;;;5025546;28;20033;-63
2022/09/06 07:09:45;;;;;;;15.30;11.10;;;18.30;1.00;;;;;;5019037;28;20049;-63
2022/09/06 07:12:10;;;;;;;14.48;11.10;;;18.10;1.00;;;;;;5019685;28;20042;-63
2022/09/06 07:14:36;;;;;;;14.02;10.55;;;18.00;1.00;;;;;;5010069;28;20063;-64
2022/09/06 07:17:01;;;;;;;14.57;10.40;;;18.50;1.00;;;;;;5022374;28;20130;-64
2022/09/06 07:19:27;;;;;;;12.68;10.07;;;18.10;1.00;;;;;;5015258;28;20072;-63
2022/09/06 07:21:52;;;;;;;12.40;10.73;;;18.30;1.00;;;;;;4991330;28;20041;-63
2022/09/06 07:24:18;;;;;;;14.98;10.70;;;19.00;99.90;;;;;;5030273;28;20040;-63
2022/09/06 07:26:44;;;;;;;10.95;9.68;;;18.60;99.90;;;;;;5028254;28;20034;-63
2022/09/06 07:29:09;;;;;;;11.75;10.45;;;18.80;99.90;;;;;;5018767;28;20124;-63
2022/09/06 07:31:37;;;;;;;11.75;10.55;;;19.30;99.90;;;;;;5021539;28;20030;-63
2022/09/06 07:34:04;;;;;;;12.18;9.90;;;19.40;99.90;;;;;;5019549;28;20046;-63
2022/09/06 07:36:29;;;;;;;12.32;10.07;;;19.80;99.90;;;;;;5022906;28;20045;-63
2022/09/06 07:38:55;;;;;;;12.75;10.07;;;20.10;99.90;;;;;;5019108;28;20407;-63
2022/09/06 07:41:21;;;;;;;12.00;10.50;;;19.40;99.90;;;;;;5031116;28;20040;-63
2022/09/06 07:43:51;;;;;;;15.10;10.50;;;20.10;99.90;;;;;;5030177;28;20068;-63
2022/09/06 07:46:16;;;;;;;11.60;10.35;;;19.30;99.90;;;;;;5029335;28;20048;-63
2022/09/06 07:48:43;;;;;;;13.73;10.15;;;;;;;;;;5021960;28;20033;-63
2022/09/06 07:51:18;;;;;;;14.48;11.60;;;19.70;99.90;;;;;;5022288;28;20438;-63
2022/09/06 07:53:49;;;;;;;12.85;11.45;;;19.70;99.90;;;;;;5030329;28;20046;-63
2022/09/06 07:56:15;;;;;;;13.88;11.68;;;19.80;99.90;;;;;;5029221;28;20510;-64
2022/09/06 07:58:41;;;;;;;14.35;11.55;;;20.00;99.90;;;;;;5010243;28;20518;-63
2022/09/06 08:01:36;;;;;;;15.60;12.38;;;;;;;;;;5008315;28;20041;-63
2022/09/06 08:04:07;;;;;;;15.48;12.07;;;;;;;;;;5010679;28;20048;-62
2022/09/06 08:06:34;;;;;;;14.18;12.57;;;20.10;99.90;;;;;;5030184;28;20075;-62
2022/09/06 08:09:01;;;;;;;13.25;11.85;;;19.80;99.90;;;;;;5026562;28;20034;-63
2022/09/06 08:11:31;;;;;;;12.82;11.48;;;;;;;;;;5011639;28;20064;-63
2022/09/06 08:13:59;;;;;;;15.32;12.30;;;19.80;99.90;;;;;;5007912;28;20073;-63
2022/09/06 08:16:26;;;;;;;13.93;12.00;;;19.80;99.90;;;;;;5019825;28;20038;-63
2022/09/06 08:18:54;;;;;;;13.90;11.82;;;20.10;99.90;;;;;;5021483;28;20037;-63
2022/09/06 08:21:24;;;;;;;14.30;11.15;;;19.40;99.90;;;;;;5029976;28;20037;-63
2022/09/06 08:24:01;;;;;;;13.95;10.50;;;20.20;99.90;;;;;;5021262;28;20045;-62
2022/09/06 08:26:28;;;;;;;12.32;10.18;;;20.20;99.90;;;;;;5030404;28;20091;-63
2022/09/06 08:29:07;;;;;;;12.90;9.75;;;20.40;99.90;;;;;;5007363;28;20030;-63
2022/09/06 08:31:35;;;;;;;15.70;12.52;;;20.70;99.90;;;;;;4981070;28;20476;-64
2022/09/06 08:34:01;;;;;;;12.32;10.82;;;20.40;99.90;;;;;;5018293;28;20041;-64
2022/09/06 08:36:29;;;;;;;11.07;9.82;;;20.40;99.90;;;;;;5021702;28;20136;-63
2022/09/06 08:38:59;;;;;;;12.93;11.13;;;21.20;99.90;;;;;;5013175;28;20531;-63
2022/09/06 08:41:26;;;;;;;13.73;10.85;;;20.90;99.90;;;;;;5033304;28;20042;-64
2022/09/06 08:43:57;;;;;;;13.35;11.93;;;20.40;99.90;;;;;;5015520;28;20503;-63
2022/09/06 08:46:37;;;;;;;13.15;10.70;;;20.70;99.90;;;;;;5020152;28;20041;-64
2022/09/06 08:49:04;;;;;;;12.88;9.90;;;20.40;99.90;;;;;;5024941;28;20388;-64
2022/09/06 08:51:45;;;;;;;12.43;11.15;;;20.80;99.90;;;;;;5032850;28;20442;-64
2022/09/06 08:54:47;;;;;;;12.55;9.85;;;21.10;99.90;;;;;;5014285;28;20045;-64
2022/09/06 08:57:15;;;;;;;12.10;10.80;;;20.70;99.90;;;;;;5025321;28;20046;-64
2022/09/06 08:59:42;;;;;;;14.07;11.45;;;20.90;99.90;;;;;;5031136;28;20035;-64
2022/09/06 09:02:09;;;;;;;13.48;10.07;;;21.00;99.90;;;;;;5032140;28;20037;-64
2022/09/06 09:04:41;;;;;;;12.93;10.90;;;21.00;99.90;;;;;;5032530;28;20034;-64
2022/09/06 09:07:34;;;;;;;13.50;11.15;;;21.00;99.90;;;;;;5027121;28;20404;-64
2022/09/06 09:10:05;;;;;;;12.30;11.02;;;20.90;99.90;;;;;;5032034;28;20038;-64
2022/09/06 09:12:33;;;;;;;13.13;11.02;;;22.10;99.90;;;;;;5032783;28;20036;-64
2022/09/06 09:15:08;;;;;;;10.85;9.13;;;21.10;99.90;;;;;;5130199;22;20036;-62
2022/09/06 09:17:34;;;;;;;;;;;21.70;99.90;;;;;;5044500;28;20045;-61
2022/09/06 09:20:00;;;;;;;12.77;9.88;;;21.80;99.90;;;;;;5045160;28;19967;-61
2022/09/06 09:22:25;;;;;;;12.38;9.77;;;22.00;99.90;;;;;;5044425;28;20068;-61
2022/09/06 09:24:51;;;;;;;11.95;9.07;;;22.20;99.90;;;;;;5034596;28;20133;-62
2022/09/06 09:27:21;;;;;;;11.68;9.60;;;23.20;99.90;;;;;;5048611;28;20095;-62
2022/09/06 09:29:53;;;;;;;10.75;9.60;;;22.40;99.90;;;;;;5051526;28;20041;-62
2022/09/06 09:32:36;;;;;;;11.13;8.80;;;22.40;99.90;;;;;;5052959;28;20044;-62
2022/09/06 09:35:28;;;;;;;12.33;8.67;;;22.00;99.90;;;;;;5046027;28;20113;-62
2022/09/06 09:38:08;;;;;;;10.60;7.47;;;22.30;99.90;;;;;;5046987;28;20264;-62
2022/09/06 09:40:47;;;;;;;10.90;7.40;;;22.60;99.90;;;;;;5052497;28;20032;-62
2022/09/06 09:43:14;;;;;;;10.43;7.57;;;22.50;99.90;;;;;;5052437;28;20037;-62
2022/09/06 09:45:40;;;;;;;8.93;7.43;;;22.50;99.90;;;;;;5051230;28;20041;-62
2022/09/06 09:48:20;;;;;;;8.75;7.30;;;23.00;99.90;;;;;;5017658;28;20086;-62
2022/09/06 09:50:46;;;;;;;8.50;7.40;;;22.60;99.90;;;;;;5045088;28;20120;-62
2022/09/06 09:53:15;;;;;;;9.27;7.75;;;23.00;99.90;;;;;;5052053;28;20056;-62
2022/09/06 09:55:42;;;;;;;10.38;7.97;;;22.90;99.90;;;;;;5045172;28;20379;-62
2022/09/06 09:58:30;;;;;;;11.77;8.82;;;23.00;99.90;;;;;;5050444;28;20409;-62
2022/09/06 10:01:22;;;;;;;10.63;7.32;;;23.60;99.90;;;;;;5046578;28;20044;-63
2022/09/06 10:03:49;;;;;;;10.45;6.97;;;23.30;99.90;;;;;;5034476;28;20163;-62
2022/09/06 10:06:24;;;;;;;7.82;6.10;;;24.20;99.90;;;;;;5047430;28;20037;-63
2022/09/06 10:08:50;;;;;;;7.60;6.35;;;23.70;99.90;;;;;;5051525;28;20448;-62
2022/09/06 10:11:55;;;;;;;9.52;6.13;;;24.10;99.90;;;;;;5052044;28;20060;-63
2022/09/06 10:14:28;;;;;;;8.85;5.90;;;23.70;99.90;;;;;;5031199;28;20128;-62
2022/09/06 10:16:54;;;;;;;9.10;6.22;;;23.60;99.90;;;;;;5051303;28;20045;-63
2022/09/06 10:19:39;;;;;;;7.70;5.35;;;24.70;99.90;;;;;;5051882;28;20033;-63
2022/09/06 10:22:22;;;;;;;8.77;6.80;;;25.60;99.90;;;;;;5051420;28;20116;-63
2022/09/06 10:25:05;;;;;;;8.95;6.07;;;24.70;99.90;;;;;;5051461;28;20333;-63
2022/09/06 10:27:32;;;;;;;9.77;6.32;;;23.90;99.90;;;;;;5047560;28;20049;-62
2022/09/06 10:30:08;;;;;;;8.70;6.82;;;23.90;99.90;;;;;;5050658;28;20387;-63
2022/09/06 10:33:19;;;;;;;9.13;5.88;;;24.00;99.90;;;;;;5050373;28;20048;-63
2022/09/06 10:35:44;;;;;;;9.52;6.78;;;24.10;99.90;;;;;;5018538;28;20087;-63
2022/09/06 10:38:31;;;;;;;11.27;6.22;;;26.00;99.90;;;;;;5045417;28;20446;-62
2022/09/06 10:41:08;;;;;;;8.50;6.25;;;25.30;99.90;;;;;;5031109;28;20115;-63
2022/09/06 10:44:12;;;;;;;8.57;6.18;;;24.00;99.90;;;;;;5051638;28;20040;-63
2022/09/06 10:46:42;;;;;;;10.25;7.35;;;24.80;99.90;;;;;;5031165;28;20073;-63
2022/09/06 10:49:15;;;;;;;10.18;6.88;;;24.50;99.90;;;;;;5045974;28;20044;-63
2022/09/06 10:51:56;;;;;;;9.47;6.33;;;24.50;99.90;;;;;;5049391;28;20041;-62
2022/09/06 10:54:23;;;;;;;7.65;6.30;;;26.00;99.90;;;;;;5045609;28;20418;-63
2022/09/06 10:57:01;;;;;;;7.82;5.72;;;25.00;99.90;;;;;;5047154;28;20488;-63
2022/09/06 10:59:29;;;;;;;7.88;5.93;;;25.50;99.90;;;;;;5050932;28;20033;-62
2022/09/06 11:02:23;;;;;;;8.00;5.60;;;26.00;99.90;;;;;;5029157;28;20098;-63
2022/09/06 11:04:49;;;;;;;8.05;5.53;;;26.40;99.90;;;;;;5048390;28;20041;-62
2022/09/06 11:07:17;;;;;;;6.93;5.20;;;25.80;99.90;;;;;;5046099;28;20033;-63
2022/09/06 11:09:49;;;;;;;8.13;5.28;;;26.30;99.90;;;;;;5047105;28;20099;-63
2022/09/06 11:12:35;;;;;;;9.25;5.30;;;26.60;99.90;;;;;;5051247;28;20397;-63
2022/09/06 11:15:03;;;;;;;7.88;5.90;;;26.90;99.90;;;;;;5050303;28;20036;-62
2022/09/06 11:17:48;;;;;;;8.20;6.43;;;25.80;99.90;;;;;;5050347;28;20068;-63
2022/09/06 11:20:17;;;;;;;;;;;26.70;99.90;;;;;;5045752;28;20043;-63
2022/09/06 11:23:01;;;;;;;7.43;4.43;;;27.20;99.90;;;;;;5050895;28;19917;-63
2022/09/06 11:25:39;;;;;;;5.85;4.18;;;26.80;99.90;;;;;;5050431;28;20087;-63
2022/09/06 11:28:09;;;;;;;5.95;4.10;;;26.50;99.90;;;;;;5043752;28;20233;-63
2022/09/06 11:30:35;;;;;;;7.13;4.88;;;26.80;99.90;;;;;;5050288;28;20524;-63
2022/09/06 11:33:26;;;;;;;9.85;5.32;;;27.00;99.90;;;;;;5046011;28;20073;-63
2022/09/06 11:36:12;;;;;;;6.70;4.57;;;27.80;99.90;;;;;;5033720;28;20506;-63
2022/09/06 11:38:38;;;;;;;7.13;4.80;;;27.10;99.90;;;;;;5048444;28;20082;-63
2022/09/06 11:41:16;;;;;;;7.28;4.55;;;27.70;99.90;;;;;;5048628;28;20069;-63
2022/09/06 11:43:49;;;;;;;6.82;4.60;;;27.10;99.90;;;;;;5050459;28;20044;-63
2022/09/06 11:46:33;;;;;;;7.53;4.28;;;27.50;99.90;;;;;;5049261;28;20131;-63
2022/09/06 11:49:00;;;;;;;7.03;4.60;;;28.00;99.90;;;;;;5026699;28;20045;-63
2022/09/06 11:51:43;;;;;;;8.93;5.07;;;28.40;99.90;;;;;;5046612;28;20044;-63
2022/09/06 11:54:23;;;;;;;7.38;3.88;;;27.90;99.90;;;;;;5044863;28;20041;-63
2022/09/06 11:56:57;;;;;;;6.43;4.20;;;29.10;99.90;;;;;;5050140;28;20041;-63
2022/09/06 11:59:37;;;;;;;7.65;4.30;;;30.10;99.90;;;;;;5049893;28;20033;-63
2022/09/06 12:02:36;;;;;;;6.47;4.18;;;28.20;99.90;;;;;;5050155;28;20040;-63
2022/09/06 12:05:03;;;;;;;5.90;3.60;;;28.50;99.90;;;;;;5032199;28;20490;-63
2022/09/06 12:07:30;;;;;;;7.15;3.83;;;29.80;99.90;;;;;;5045333;28;20142;-63
2022/09/06 12:09:59;;;;;;;8.43;4.03;;;31.40;99.90;;;;;;5048104;28;20068;-63
2022/09/06 12:12:51;;;;;;;8.35;3.85;;;32.60;99.90;;;;;;5044751;28;20112;-63
2022/09/06 12:15:28;;;;;;;6.45;3.88;;;32.50;99.90;;;;;;5046661;28;20083;-63
2022/09/06 12:17:55;;;;;;;6.00;3.85;;;34.10;99.90;;;;;;5047700;28;20094;-63
2022/09/06 12:20:53;;;;;;;5.80;3.67;;;34.60;99.90;;;;;;5036127;28;20041;-63
2022/09/06 12:23:33;;;;;;;7.28;3.78;;;36.30;99.90;;;;;;5049462;28;20041;-63
2022/09/06 12:26:04;;;;;;;5.25;3.47;;;37.70;99.90;;;;;;5046680;28;20037;-64
2022/09/06 12:28:40;;;;;;;6.97;3.47;;;38.00;99.90;;;;;;5050066;28;20033;-63
2022/09/06 12:31:33;;;;;;;8.40;3.50;;;38.30;99.90;;;;;;5047150;28;20025;-63
2022/09/06 12:34:07;;;;;;;5.63;3.75;;;39.10;99.90;;;;;;5049955;28;20494;-63
2022/09/06 12:36:33;;;;;;;5.45;3.65;;;39.80;99.90;;;;;;5053061;28;20040;-62
2022/09/06 12:39:03;;;;;;;7.38;4.30;;;38.50;99.90;;;;;;5046215;28;20036;-63
2022/09/06 12:41:35;;;;;;;6.70;4.40;;;37.50;99.90;;;;;;5035431;28;20041;-63
2022/09/06 12:44:04;;;;;;;8.85;4.43;;;36.60;99.90;;;;;;5053672;28;20417;-63
2022/09/06 12:46:31;;;;;;;7.75;4.35;;;35.70;99.90;;;;;;5053543;28;20112;-62
2022/09/06 12:49:08;;;;;;;6.30;3.30;;;34.40;99.90;;;;;;5048644;28;20045;-62
2022/09/06 12:51:36;;;;;;;6.07;3.15;;;35.30;99.90;;;;;;5048955;28;20036;-62
2022/09/06 12:54:17;;;;;;;4.97;2.65;;;36.90;99.90;;;;;;5052878;28;20040;-63
2022/09/06 12:57:09;;;;;;;6.10;3.03;;;37.60;99.90;;;;;;5051713;28;20072;-63
2022/09/06 12:59:35;;;;;;;5.22;2.72;;;39.10;99.90;;;;;;5053013;28;20044;-62
2022/09/06 13:02:10;;;;;;;5.40;3.20;;;39.40;99.90;;;;;;5053456;28;20033;-63
2022/09/06 13:04:50;;;;;;;6.90;3.00;;;37.80;99.90;;;;;;5052422;28;20368;-63
2022/09/06 13:07:19;;;;;;;6.13;2.88;;;37.10;99.90;;;;;;5030490;28;20049;-63
2022/09/06 13:09:47;;;;;;;10.52;3.75;;;37.00;99.90;;;;;;5051000;28;20044;-63
2022/09/06 13:12:34;;;;;;;7.65;3.35;;;37.90;99.90;;;;;;5042391;28;20073;-63
2022/09/06 13:15:25;;;;;;;5.07;3.10;;;39.40;99.90;;;;;;5052297;28;20037;-63
2022/09/06 13:17:52;;;;;;;6.22;3.40;;;39.30;99.90;;;;;;5038603;28;20402;-62
2022/09/06 13:20:29;;;;;;;6.53;3.50;;;39.00;99.90;;;;;;5052883;28;20110;-62
2022/09/06 13:23:18;;;;;;;7.93;3.92;;;37.80;99.90;;;;;;5034849;28;20052;-62
2022/09/06 13:25:49;;;;;;;6.72;3.13;;;38.00;99.90;;;;;;5034484;28;20049;-62